sensor_id;sensor_type;location;lat;lon;timestamp;temperature;humidity
4697;DHT22;2362;50.780;0.292;2022-08-21T00:00:42;15.90;99.90
4697;DHT22;2362;50.780;0.292;2022-08-21T00:03:09;15.90;99.90
4697;DHT22;2362;50.780;0.292;2022-08-21T00:05:38;15.80;99.90
4697;DHT22;2362;50.780;0.292;2022-08-21T00:08:05;15.90;99.90
4697;DHT22;2362;50.780;0.292;2022-08-21T00:10:31;15.90;99.90
4697;DHT22;2362;50.780;0.292;2022-08-21T00:12:57;15.80;99.90
4697;DHT22;2362;50.780;0.292;2022-08-21T00:15:26;15.80;99.90
4697;DHT22;2362;50.780;0.292;2022-08-21T00:17:53;15.80;99.90
4697;DHT22;2362;50.780;0.292;2022-08-21T00:20:19;15.70;99.90
4697;DHT22;2362;50.780;0.292;2022-08-21T00:22:45;15.80;99.90
4697;DHT22;2362;50.780;0.292;2022-08-21T00:25:13;15.90;99.90
4697;DHT22;2362;50.780;0.292;2022-08-21T00:27:40;15.90;99.90
4697;DHT22;2362;50.780;0.292;2022-08-21T00:30:08;15.80;99.90
4697;DHT22;2362;50.780;0.292;2022-08-21T00:32:37;15.70;99.90
4697;DHT22;2362;50.780;0.292;2022-08-21T00:35:09;15.60;99.90
4697;DHT22;2362;50.780;0.292;2022-08-21T00:37:37;15.50;99.90
4697;DHT22;2362;50.780;0.292;2022-08-21T00:40:03;15.60;99.90
4697;DHT22;2362;50.780;0.292;2022-08-21T00:42:30;15.70;99.90
4697;DHT22;2362;50.780;0.292;2022-08-21T00:44:56;15.70;99.90
4697;DHT22;2362;50.780;0.292;2022-08-21T00:47:21;15.60;99.90
4697;DHT22;2362;50.780;0.292;2022-08-21T00:49:47;15.60;99.90
4697;DHT22;2362;50.780;0.292;2022-08-21T00:52:17;15.50;99.90
4697;DHT22;2362;50.780;0.292;2022-08-21T00:54:45;15.50;99.90
4697;DHT22;2362;50.780;0.292;2022-08-21T00:57:20;15.50;99.90
4697;DHT22;2362;50.780;0.292;2022-08-21T00:59:50;15.50;99.90
4697;DHT22;2362;50.780;0.292;2022-08-21T01:02:18;15.50;99.90
4697;DHT22;2362;50.780;0.292;2022-08-21T01:04:44;15.50;99.90
4697;DHT22;2362;50.780;0.292;2022-08-21T01:07:10;15.60;99.90
4697;DHT22;2362;50.780;0.292;2022-08-21T01:09:36;15.60;99.90
4697;DHT22;2362;50.780;0.292;2022-08-21T01:12:03;15.70;99.90
4697;DHT22;2362;50.780;0.292;2022-08-21T01:14:29;15.70;99.90
4697;DHT22;2362;50.780;0.292;2022-08-21T01:16:56;15.90;99.90
4697;DHT22;2362;50.780;0.292;2022-08-21T01:19:23;15.80;99.90
4697;DHT22;2362;50.780;0.292;2022-08-21T01:21:50;15.80;99.90
4697;DHT22;2362;50.780;0.292;2022-08-21T01:24:15;15.80;99.90
4697;DHT22;2362;50.780;0.292;2022-08-21T01:26:42;15.80;99.90
4697;DHT22;2362;50.780;0.292;2022-08-21T01:29:16;15.80;99.90
4697;DHT22;2362;50.780;0.292;2022-08-21T01:31:45;15.90;99.90
4697;DHT22;2362;50.780;0.292;2022-08-21T01:34:11;15.90;99.90
4697;DHT22;2362;50.780;0.292;2022-08-21T01:36:37;15.90;99.90
4697;DHT22;2362;50.780;0.292;2022-08-21T01:39:04;15.80;99.90
4697;DHT22;2362;50.780;0.292;2022-08-21T01:41:30;15.70;99.90
4697;DHT22;2362;50.780;0.292;2022-08-21T01:43:56;15.60;99.90
4697;DHT22;2362;50.780;0.292;2022-08-21T01:46:21;15.60;99.90
4697;DHT22;2362;50.780;0.292;2022-08-21T01:48:47;15.60;99.90
4697;DHT22;2362;50.780;0.292;2022-08-21T01:51:14;15.60;99.90
4697;DHT22;2362;50.780;0.292;2022-08-21T01:53:40;15.60;99.90
4697;DHT22;2362;50.780;0.292;2022-08-21T01:56:08;15.60;99.90
4697;DHT22;2362;50.780;0.292;2022-08-21T01:58:34;15.60;99.90
4697;DHT22;2362;50.780;0.292;2022-08-21T02:01:01;15.50;99.90
4697;DHT22;2362;50.780;0.292;2022-08-21T02:03:30;15.50;99.90
4697;DHT22;2362;50.780;0.292;2022-08-21T02:05:57;15.40;99.90
4697;DHT22;2362;50.780;0.292;2022-08-21T02:08:23;15.40;99.90
4697;DHT22;2362;50.780;0.292;2022-08-21T02:10:50;15.50;99.90
4697;DHT22;2362;50.780;0.292;2022-08-21T02:13:16;15.50;99.90
4697;DHT22;2362;50.780;0.292;2022-08-21T02:15:42;15.40;99.90
4697;DHT22;2362;50.780;0.292;2022-08-21T02:18:08;15.40;99.90
4697;DHT22;2362;50.780;0.292;2022-08-21T02:20:37;15.40;99.90
4697;DHT22;2362;50.780;0.292;2022-08-21T02:23:05;15.40;99.90
4697;DHT22;2362;50.780;0.292;2022-08-21T02:25:31;15.40;99.90
4697;DHT22;2362;50.780;0.292;2022-08-21T02:27:58;15.40;99.90
4697;DHT22;2362;50.780;0.292;2022-08-21T02:30:28;15.40;99.90
4697;DHT22;2362;50.780;0.292;2022-08-21T02:32:54;15.40;99.90
4697;DHT22;2362;50.780;0.292;2022-08-21T02:35:21;15.40;99.90
4697;DHT22;2362;50.780;0.292;2022-08-21T02:37:53;15.40;99.90
4697;DHT22;2362;50.780;0.292;2022-08-21T02:40:22;15.50;99.90
4697;DHT22;2362;50.780;0.292;2022-08-21T02:42:48;15.60;99.90
4697;DHT22;2362;50.780;0.292;2022-08-21T02:45:15;15.60;99.90
4697;DHT22;2362;50.780;0.292;2022-08-21T02:47:48;15.70;99.90
4697;DHT22;2362;50.780;0.292;2022-08-21T02:50:19;15.80;99.90
4697;DHT22;2362;50.780;0.292;2022-08-21T02:52:45;15.90;99.90
4697;DHT22;2362;50.780;0.292;2022-08-21T02:55:11;16.00;99.90
4697;DHT22;2362;50.780;0.292;2022-08-21T02:57:37;16.10;99.90
4697;DHT22;2362;50.780;0.292;2022-08-21T03:00:04;16.20;99.90
4697;DHT22;2362;50.780;0.292;2022-08-21T03:02:30;16.20;99.90
4697;DHT22;2362;50.780;0.292;2022-08-21T03:04:56;16.30;99.90
4697;DHT22;2362;50.780;0.292;2022-08-21T03:07:22;16.30;99.90
4697;DHT22;2362;50.780;0.292;2022-08-21T03:09:48;16.20;99.90
4697;DHT22;2362;50.780;0.292;2022-08-21T03:12:13;16.10;99.90
4697;DHT22;2362;50.780;0.292;2022-08-21T03:14:39;16.00;99.90
4697;DHT22;2362;50.780;0.292;2022-08-21T03:17:05;15.90;99.90
4697;DHT22;2362;50.780;0.292;2022-08-21T03:19:30;15.80;99.90
4697;DHT22;2362;50.780;0.292;2022-08-21T03:21:56;15.80;99.90
4697;DHT22;2362;50.780;0.292;2022-08-21T03:24:22;15.70;99.90
4697;DHT22;2362;50.780;0.292;2022-08-21T03:26:47;15.60;99.90
4697;DHT22;2362;50.780;0.292;2022-08-21T03:29:13;15.60;99.90
4697;DHT22;2362;50.780;0.292;2022-08-21T03:31:39;15.50;99.90
4697;DHT22;2362;50.780;0.292;2022-08-21T03:34:05;15.60;99.90
4697;DHT22;2362;50.780;0.292;2022-08-21T03:36:31;15.60;99.90
4697;DHT22;2362;50.780;0.292;2022-08-21T03:38:56;15.60;99.90
4697;DHT22;2362;50.780;0.292;2022-08-21T03:41:22;15.50;99.90
4697;DHT22;2362;50.780;0.292;2022-08-21T03:43:48;15.50;99.90
4697;DHT22;2362;50.780;0.292;2022-08-21T03:46:13;15.40;99.90
4697;DHT22;2362;50.780;0.292;2022-08-21T03:48:39;15.40;99.90
4697;DHT22;2362;50.780;0.292;2022-08-21T03:51:06;15.40;99.90
4697;DHT22;2362;50.780;0.292;2022-08-21T03:53:31;15.30;99.90
4697;DHT22;2362;50.780;0.292;2022-08-21T03:55:57;15.30;99.90
4697;DHT22;2362;50.780;0.292;2022-08-21T03:58:25;15.30;99.90
4697;DHT22;2362;50.780;0.292;2022-08-21T04:00:54;15.20;99.90
4697;DHT22;2362;50.780;0.292;2022-08-21T04:03:21;15.20;99.90
4697;DHT22;2362;50.780;0.292;2022-08-21T04:05:47;15.10;99.90
4697;DHT22;2362;50.780;0.292;2022-08-21T04:08:13;15.10;99.90
4697;DHT22;2362;50.780;0.292;2022-08-21T04:10:43;15.00;99.90
4697;DHT22;2362;50.780;0.292;2022-08-21T04:13:09;15.00;99.90
4697;DHT22;2362;50.780;0.292;2022-08-21T04:15:35;15.00;99.90
4697;DHT22;2362;50.780;0.292;2022-08-21T04:18:03;14.90;99.90
4697;DHT22;2362;50.780;0.292;2022-08-21T04:20:29;14.90;99.90
4697;DHT22;2362;50.780;0.292;2022-08-21T04:22:55;14.80;99.90
4697;DHT22;2362;50.780;0.292;2022-08-21T04:25:22;14.80;99.90
4697;DHT22;2362;50.780;0.292;2022-08-21T04:27:49;14.80;99.90
4697;DHT22;2362;50.780;0.292;2022-08-21T04:30:15;14.90;99.90
4697;DHT22;2362;50.780;0.292;2022-08-21T04:32:49;14.90;99.90
4697;DHT22;2362;50.780;0.292;2022-08-21T04:35:19;14.90;99.90
4697;DHT22;2362;50.780;0.292;2022-08-21T04:37:45;15.00;99.90
4697;DHT22;2362;50.780;0.292;2022-08-21T04:40:14;15.10;99.90
4697;DHT22;2362;50.780;0.292;2022-08-21T04:42:44;15.20;99.90
4697;DHT22;2362;50.780;0.292;2022-08-21T04:45:16;15.20;99.90
4697;DHT22;2362;50.780;0.292;2022-08-21T04:47:42;15.30;99.90
4697;DHT22;2362;50.780;0.292;2022-08-21T04:50:08;15.40;99.90
4697;DHT22;2362;50.780;0.292;2022-08-21T04:52:34;15.40;99.90
4697;DHT22;2362;50.780;0.292;2022-08-21T04:55:00;15.50;99.90
4697;DHT22;2362;50.780;0.292;2022-08-21T04:57:26;15.50;99.90
4697;DHT22;2362;50.780;0.292;2022-08-21T04:59:52;15.50;99.90
4697;DHT22;2362;50.780;0.292;2022-08-21T05:02:18;15.60;99.90
4697;DHT22;2362;50.780;0.292;2022-08-21T05:04:50;15.60;99.90
4697;DHT22;2362;50.780;0.292;2022-08-21T05:07:20;15.70;99.90
4697;DHT22;2362;50.780;0.292;2022-08-21T05:09:47;15.80;99.90
4697;DHT22;2362;50.780;0.292;2022-08-21T05:12:13;16.00;99.90
4697;DHT22;2362;50.780;0.292;2022-08-21T05:14:39;16.10;99.90
4697;DHT22;2362;50.780;0.292;2022-08-21T05:17:04;16.10;99.90
4697;DHT22;2362;50.780;0.292;2022-08-21T05:19:30;16.10;99.90
4697;DHT22;2362;50.780;0.292;2022-08-21T05:21:56;16.20;99.90
4697;DHT22;2362;50.780;0.292;2022-08-21T05:24:23;16.20;99.90
4697;DHT22;2362;50.780;0.292;2022-08-21T05:26:49;16.30;99.90
4697;DHT22;2362;50.780;0.292;2022-08-21T05:29:16;16.30;99.90
4697;DHT22;2362;50.780;0.292;2022-08-21T05:31:42;16.30;99.90
4697;DHT22;2362;50.780;0.292;2022-08-21T05:34:07;16.30;99.90
4697;DHT22;2362;50.780;0.292;2022-08-21T05:36:33;16.40;99.90
4697;DHT22;2362;50.780;0.292;2022-08-21T05:38:59;16.40;99.90
4697;DHT22;2362;50.780;0.292;2022-08-21T05:41:25;16.50;99.90
4697;DHT22;2362;50.780;0.292;2022-08-21T05:43:51;16.60;99.90
4697;DHT22;2362;50.780;0.292;2022-08-21T05:46:16;16.60;99.90
4697;DHT22;2362;50.780;0.292;2022-08-21T05:48:42;16.80;99.90
4697;DHT22;2362;50.780;0.292;2022-08-21T05:51:14;16.80;99.90
4697;DHT22;2362;50.780;0.292;2022-08-21T05:53:40;16.90;99.90
4697;DHT22;2362;50.780;0.292;2022-08-21T05:56:08;17.00;99.90
4697;DHT22;2362;50.780;0.292;2022-08-21T05:58:34;17.20;99.90
4697;DHT22;2362;50.780;0.292;2022-08-21T06:01:01;17.20;99.90
4697;DHT22;2362;50.780;0.292;2022-08-21T06:03:34;17.30;99.90
4697;DHT22;2362;50.780;0.292;2022-08-21T06:06:00;17.20;99.90
4697;DHT22;2362;50.780;0.292;2022-08-21T06:08:27;17.30;99.90
4697;DHT22;2362;50.780;0.292;2022-08-21T06:10:54;17.70;99.90
4697;DHT22;2362;50.780;0.292;2022-08-21T06:13:21;18.50;99.90
4697;DHT22;2362;50.780;0.292;2022-08-21T06:15:48;18.70;99.90
4697;DHT22;2362;50.780;0.292;2022-08-21T06:18:14;18.70;99.90
4697;DHT22;2362;50.780;0.292;2022-08-21T06:20:40;18.50;99.90
4697;DHT22;2362;50.780;0.292;2022-08-21T06:23:06;18.70;99.90
4697;DHT22;2362;50.780;0.292;2022-08-21T06:25:32;19.20;99.90
4697;DHT22;2362;50.780;0.292;2022-08-21T06:28:09;19.80;99.90
4697;DHT22;2362;50.780;0.292;2022-08-21T06:30:36;19.70;99.90
4697;DHT22;2362;50.780;0.292;2022-08-21T06:33:02;19.40;99.90
4697;DHT22;2362;50.780;0.292;2022-08-21T06:35:29;19.10;99.90
4697;DHT22;2362;50.780;0.292;2022-08-21T06:37:56;18.80;99.90
4697;DHT22;2362;50.780;0.292;2022-08-21T06:40:22;18.60;99.90
4697;DHT22;2362;50.780;0.292;2022-08-21T06:42:48;18.50;99.90
4697;DHT22;2362;50.780;0.292;2022-08-21T06:45:14;18.40;99.90
4697;DHT22;2362;50.780;0.292;2022-08-21T06:47:39;18.40;99.90
4697;DHT22;2362;50.780;0.292;2022-08-21T06:50:06;18.30;99.90
4697;DHT22;2362;50.780;0.292;2022-08-21T06:52:34;18.30;99.90
4697;DHT22;2362;50.780;0.292;2022-08-21T06:54:59;18.30;99.90
4697;DHT22;2362;50.780;0.292;2022-08-21T06:57:25;18.30;99.90
4697;DHT22;2362;50.780;0.292;2022-08-21T06:59:51;18.50;99.90
4697;DHT22;2362;50.780;0.292;2022-08-21T07:02:17;19.00;99.90
4697;DHT22;2362;50.780;0.292;2022-08-21T07:04:43;19.50;99.90
4697;DHT22;2362;50.780;0.292;2022-08-21T07:07:09;19.90;99.90
4697;DHT22;2362;50.780;0.292;2022-08-21T07:09:35;20.00;99.90
4697;DHT22;2362;50.780;0.292;2022-08-21T07:12:01;20.30;99.90
4697;DHT22;2362;50.780;0.292;2022-08-21T07:14:27;20.70;99.90
4697;DHT22;2362;50.780;0.292;2022-08-21T07:16:53;21.00;99.90
4697;DHT22;2362;50.780;0.292;2022-08-21T07:19:19;21.00;99.90
4697;DHT22;2362;50.780;0.292;2022-08-21T07:21:45;20.70;99.90
4697;DHT22;2362;50.780;0.292;2022-08-21T07:24:12;20.20;99.90
4697;DHT22;2362;50.780;0.292;2022-08-21T07:26:38;19.90;99.90
4697;DHT22;2362;50.780;0.292;2022-08-21T07:29:04;19.90;99.90
4697;DHT22;2362;50.780;0.292;2022-08-21T07:31:30;19.80;99.90
4697;DHT22;2362;50.780;0.292;2022-08-21T07:33:56;19.80;99.90
4697;DHT22;2362;50.780;0.292;2022-08-21T07:36:22;19.70;99.90
4697;DHT22;2362;50.780;0.292;2022-08-21T07:38:48;20.00;99.90
4697;DHT22;2362;50.780;0.292;2022-08-21T07:41:19;20.20;99.90
4697;DHT22;2362;50.780;0.292;2022-08-21T07:43:45;20.30;99.90
4697;DHT22;2362;50.780;0.292;2022-08-21T07:46:11;20.30;99.90
4697;DHT22;2362;50.780;0.292;2022-08-21T07:48:38;20.20;99.90
4697;DHT22;2362;50.780;0.292;2022-08-21T07:51:07;20.30;99.90
4697;DHT22;2362;50.780;0.292;2022-08-21T07:53:34;20.40;99.90
4697;DHT22;2362;50.780;0.292;2022-08-21T07:56:01;20.50;99.90
4697;DHT22;2362;50.780;0.292;2022-08-21T07:58:26;20.60;99.90
4697;DHT22;2362;50.780;0.292;2022-08-21T08:00:52;20.60;99.90
4697;DHT22;2362;50.780;0.292;2022-08-21T08:03:18;20.60;99.90
4697;DHT22;2362;50.780;0.292;2022-08-21T08:05:44;20.40;99.90
4697;DHT22;2362;50.780;0.292;2022-08-21T08:08:09;20.40;99.90
4697;DHT22;2362;50.780;0.292;2022-08-21T08:10:36;20.30;99.90
4697;DHT22;2362;50.780;0.292;2022-08-21T08:13:02;20.20;99.90
4697;DHT22;2362;50.780;0.292;2022-08-21T08:15:28;20.00;99.90
4697;DHT22;2362;50.780;0.292;2022-08-21T08:17:55;20.00;99.90
4697;DHT22;2362;50.780;0.292;2022-08-21T08:20:21;19.90;99.90
4697;DHT22;2362;50.780;0.292;2022-08-21T08:22:49;19.70;99.90
4697;DHT22;2362;50.780;0.292;2022-08-21T08:25:16;19.70;99.90
4697;DHT22;2362;50.780;0.292;2022-08-21T08:27:42;19.70;99.90
4697;DHT22;2362;50.780;0.292;2022-08-21T08:30:11;19.60;99.90
4697;DHT22;2362;50.780;0.292;2022-08-21T08:32:37;19.60;99.90
4697;DHT22;2362;50.780;0.292;2022-08-21T08:35:04;19.60;99.90
4697;DHT22;2362;50.780;0.292;2022-08-21T08:37:30;19.50;99.90
4697;DHT22;2362;50.780;0.292;2022-08-21T08:39:55;19.30;99.90
4697;DHT22;2362;50.780;0.292;2022-08-21T08:42:29;19.30;99.90
4697;DHT22;2362;50.780;0.292;2022-08-21T08:45:09;19.40;99.90
4697;DHT22;2362;50.780;0.292;2022-08-21T08:47:39;19.50;99.90
4697;DHT22;2362;50.780;0.292;2022-08-21T08:50:18;19.60;99.90
4697;DHT22;2362;50.780;0.292;2022-08-21T08:52:57;19.80;99.90
4697;DHT22;2362;50.780;0.292;2022-08-21T08:55:38;20.00;99.90
4697;DHT22;2362;50.780;0.292;2022-08-21T08:58:04;20.10;99.90
4697;DHT22;2362;50.780;0.292;2022-08-21T09:00:31;20.20;99.90
4697;DHT22;2362;50.780;0.292;2022-08-21T09:02:58;20.40;99.90
4697;DHT22;2362;50.780;0.292;2022-08-21T09:05:29;20.50;99.90
4697;DHT22;2362;50.780;0.292;2022-08-21T09:16:27;20.80;99.90
4697;DHT22;2362;50.780;0.292;2022-08-21T09:22:26;21.60;99.90
4697;DHT22;2362;50.780;0.292;2022-08-21T09:27:38;21.50;99.90
4697;DHT22;2362;50.780;0.292;2022-08-21T09:30:05;21.50;99.90
4697;DHT22;2362;50.780;0.292;2022-08-21T09:32:34;21.40;99.90
4697;DHT22;2362;50.780;0.292;2022-08-21T09:42:58;21.20;99.90
4697;DHT22;2362;50.780;0.292;2022-08-21T09:45:24;21.00;99.90
4697;DHT22;2362;50.780;0.292;2022-08-21T09:47:50;21.10;99.90
4697;DHT22;2362;50.780;0.292;2022-08-21T09:50:22;21.20;99.90
4697;DHT22;2362;50.780;0.292;2022-08-21T09:52:57;21.30;99.90
4697;DHT22;2362;50.780;0.292;2022-08-21T09:55:32;21.30;99.90
4697;DHT22;2362;50.780;0.292;2022-08-21T09:58:18;21.20;99.90
4697;DHT22;2362;50.780;0.292;2022-08-21T10:00:56;21.20;99.90
4697;DHT22;2362;50.780;0.292;2022-08-21T10:03:22;21.30;99.90
4697;DHT22;2362;50.780;0.292;2022-08-21T10:05:56;21.40;99.90
4697;DHT22;2362;50.780;0.292;2022-08-21T10:08:25;21.50;99.90
4697;DHT22;2362;50.780;0.292;2022-08-21T10:11:16;21.80;99.90
4697;DHT22;2362;50.780;0.292;2022-08-21T10:14:03;22.10;99.90
4697;DHT22;2362;50.780;0.292;2022-08-21T10:16:59;22.40;99.90
4697;DHT22;2362;50.780;0.292;2022-08-21T10:25:19;22.20;99.90
4697;DHT22;2362;50.780;0.292;2022-08-21T10:33:28;22.30;99.90
4697;DHT22;2362;50.780;0.292;2022-08-21T10:36:21;22.50;99.90
4697;DHT22;2362;50.780;0.292;2022-08-21T10:46:53;22.60;99.90
4697;DHT22;2362;50.780;0.292;2022-08-21T10:49:45;22.80;99.90
4697;DHT22;2362;50.780;0.292;2022-08-21T10:55:16;22.80;99.90
4697;DHT22;2362;50.780;0.292;2022-08-21T10:58:19;23.00;99.90
4697;DHT22;2362;50.780;0.292;2022-08-21T11:00:53;23.20;99.90
4697;DHT22;2362;50.780;0.292;2022-08-21T11:03:29;23.40;99.90
4697;DHT22;2362;50.780;0.292;2022-08-21T11:06:18;23.50;99.90
4697;DHT22;2362;50.780;0.292;2022-08-21T11:08:50;23.40;99.90
4697;DHT22;2362;50.780;0.292;2022-08-21T11:11:40;23.30;99.90
4697;DHT22;2362;50.780;0.292;2022-08-21T11:17:11;23.20;99.90
4697;DHT22;2362;50.780;0.292;2022-08-21T11:19:50;23.20;99.90
4697;DHT22;2362;50.780;0.292;2022-08-21T11:22:42;23.10;99.90
4697;DHT22;2362;50.780;0.292;2022-08-21T11:25:35;23.00;99.90
4697;DHT22;2362;50.780;0.292;2022-08-21T11:33:41;23.40;99.90
4697;DHT22;2362;50.780;0.292;2022-08-21T11:38:45;23.70;99.90
4697;DHT22;2362;50.780;0.292;2022-08-21T11:41:30;23.50;99.90
4697;DHT22;2362;50.780;0.292;2022-08-21T11:44:14;23.40;99.90
4697;DHT22;2362;50.780;0.292;2022-08-21T11:46:49;23.20;99.90
4697;DHT22;2362;50.780;0.292;2022-08-21T11:52:08;23.40;99.90
4697;DHT22;2362;50.780;0.292;2022-08-21T11:59:59;23.50;99.90
4697;DHT22;2362;50.780;0.292;2022-08-21T12:02:31;23.50;99.90
4697;DHT22;2362;50.780;0.292;2022-08-21T12:05:08;23.50;99.90
4697;DHT22;2362;50.780;0.292;2022-08-21T12:07:44;23.30;99.90
4697;DHT22;2362;50.780;0.292;2022-08-21T12:10:19;23.20;99.90
4697;DHT22;2362;50.780;0.292;2022-08-21T12:13:07;23.30;99.90
4697;DHT22;2362;50.780;0.292;2022-08-21T12:15:33;23.50;99.90
4697;DHT22;2362;50.780;0.292;2022-08-21T12:23:06;23.60;99.90
4697;DHT22;2362;50.780;0.292;2022-08-21T12:26:00;23.80;99.90
4697;DHT22;2362;50.780;0.292;2022-08-21T12:28:27;23.90;99.90
4697;DHT22;2362;50.780;0.292;2022-08-21T12:30:54;24.00;99.90
4697;DHT22;2362;50.780;0.292;2022-08-21T12:33:27;23.80;99.90
4697;DHT22;2362;50.780;0.292;2022-08-21T12:36:07;23.90;99.90
4697;DHT22;2362;50.780;0.292;2022-08-21T12:38:50;23.80;99.90
4697;DHT22;2362;50.780;0.292;2022-08-21T12:41:36;23.50;99.90
4697;DHT22;2362;50.780;0.292;2022-08-21T12:44:09;23.50;99.90
4697;DHT22;2362;50.780;0.292;2022-08-21T12:46:42;23.60;99.90
4697;DHT22;2362;50.780;0.292;2022-08-21T12:49:16;23.60;99.90
4697;DHT22;2362;50.780;0.292;2022-08-21T12:54:46;23.50;99.90
4697;DHT22;2362;50.780;0.292;2022-08-21T12:57:24;23.50;99.90
4697;DHT22;2362;50.780;0.292;2022-08-21T13:00:03;23.60;99.90
4697;DHT22;2362;50.780;0.292;2022-08-21T13:02:36;23.60;99.90
4697;DHT22;2362;50.780;0.292;2022-08-21T13:05:06;23.40;99.90
4697;DHT22;2362;50.780;0.292;2022-08-21T13:07:35;23.30;99.90
4697;DHT22;2362;50.780;0.292;2022-08-21T13:12:59;23.20;99.90
4697;DHT22;2362;50.780;0.292;2022-08-21T13:15:29;23.20;99.90
4697;DHT22;2362;50.780;0.292;2022-08-21T13:17:56;23.20;99.90
4697;DHT22;2362;50.780;0.292;2022-08-21T13:20:38;23.20;99.90
4697;DHT22;2362;50.780;0.292;2022-08-21T13:23:26;23.40;99.90
4697;DHT22;2362;50.780;0.292;2022-08-21T13:25:52;23.40;99.90
4697;DHT22;2362;50.780;0.292;2022-08-21T13:28:18;23.30;99.90
4697;DHT22;2362;50.780;0.292;2022-08-21T13:30:47;23.20;99.90
4697;DHT22;2362;50.780;0.292;2022-08-21T13:33:16;23.00;99.90
4697;DHT22;2362;50.780;0.292;2022-08-21T13:38:44;22.70;99.90
4697;DHT22;2362;50.780;0.292;2022-08-21T13:43:46;22.40;99.90
4697;DHT22;2362;50.780;0.292;2022-08-21T13:46:13;22.30;99.90
4697;DHT22;2362;50.780;0.292;2022-08-21T13:48:40;22.20;99.90
4697;DHT22;2362;50.780;0.292;2022-08-21T13:51:06;22.20;99.90
4697;DHT22;2362;50.780;0.292;2022-08-21T13:53:47;22.10;99.90
4697;DHT22;2362;50.780;0.292;2022-08-21T13:56:42;21.70;99.90
4697;DHT22;2362;50.780;0.292;2022-08-21T13:59:08;21.70;99.90
4697;DHT22;2362;50.780;0.292;2022-08-21T14:01:48;21.80;99.90
4697;DHT22;2362;50.780;0.292;2022-08-21T14:04:30;21.70;99.90
4697;DHT22;2362;50.780;0.292;2022-08-21T14:06:56;21.70;99.90
4697;DHT22;2362;50.780;0.292;2022-08-21T14:09:32;21.80;99.90
4697;DHT22;2362;50.780;0.292;2022-08-21T14:12:02;21.60;99.90
4697;DHT22;2362;50.780;0.292;2022-08-21T14:14:33;21.60;99.90
4697;DHT22;2362;50.780;0.292;2022-08-21T14:17:07;21.60;99.90
4697;DHT22;2362;50.780;0.292;2022-08-21T14:19:43;21.60;99.90
4697;DHT22;2362;50.780;0.292;2022-08-21T14:25:05;21.10;99.90
4697;DHT22;2362;50.780;0.292;2022-08-21T14:27:33;21.00;99.90
4697;DHT22;2362;50.780;0.292;2022-08-21T14:30:08;20.90;99.90
4697;DHT22;2362;50.780;0.292;2022-08-21T14:32:38;20.90;99.90
4697;DHT22;2362;50.780;0.292;2022-08-21T14:35:04;20.90;99.90
4697;DHT22;2362;50.780;0.292;2022-08-21T14:37:31;20.80;99.90
4697;DHT22;2362;50.780;0.292;2022-08-21T14:39:57;20.70;99.90
4697;DHT22;2362;50.780;0.292;2022-08-21T14:42:24;20.60;99.90
4697;DHT22;2362;50.780;0.292;2022-08-21T14:44:50;20.70;99.90
4697;DHT22;2362;50.780;0.292;2022-08-21T14:47:16;20.80;99.90
4697;DHT22;2362;50.780;0.292;2022-08-21T14:49:42;20.90;99.90
4697;DHT22;2362;50.780;0.292;2022-08-21T14:52:08;20.90;99.90
4697;DHT22;2362;50.780;0.292;2022-08-21T14:54:34;21.00;99.90
4697;DHT22;2362;50.780;0.292;2022-08-21T14:57:06;21.20;99.90
4697;DHT22;2362;50.780;0.292;2022-08-21T14:59:33;21.20;99.90
4697;DHT22;2362;50.780;0.292;2022-08-21T15:01:59;21.20;99.90
4697;DHT22;2362;50.780;0.292;2022-08-21T15:04:25;21.30;99.90
4697;DHT22;2362;50.780;0.292;2022-08-21T15:06:50;21.40;99.90
4697;DHT22;2362;50.780;0.292;2022-08-21T15:09:16;21.40;99.90
4697;DHT22;2362;50.780;0.292;2022-08-21T15:11:42;21.40;99.90
4697;DHT22;2362;50.780;0.292;2022-08-21T15:14:10;21.40;99.90
4697;DHT22;2362;50.780;0.292;2022-08-21T15:16:36;21.30;99.90
4697;DHT22;2362;50.780;0.292;2022-08-21T15:19:02;21.30;99.90
4697;DHT22;2362;50.780;0.292;2022-08-21T15:21:28;21.30;99.90
4697;DHT22;2362;50.780;0.292;2022-08-21T15:23:54;21.20;99.90
4697;DHT22;2362;50.780;0.292;2022-08-21T15:26:21;21.20;99.90
4697;DHT22;2362;50.780;0.292;2022-08-21T15:28:47;21.20;99.90
4697;DHT22;2362;50.780;0.292;2022-08-21T15:31:13;21.20;99.90
4697;DHT22;2362;50.780;0.292;2022-08-21T15:33:39;21.10;99.90
4697;DHT22;2362;50.780;0.292;2022-08-21T15:36:04;21.10;99.90
4697;DHT22;2362;50.780;0.292;2022-08-21T15:38:30;21.20;99.90
4697;DHT22;2362;50.780;0.292;2022-08-21T15:40:56;21.20;99.90
4697;DHT22;2362;50.780;0.292;2022-08-21T15:43:27;21.30;99.90
4697;DHT22;2362;50.780;0.292;2022-08-21T15:45:54;21.30;99.90
4697;DHT22;2362;50.780;0.292;2022-08-21T15:48:20;21.30;99.90
4697;DHT22;2362;50.780;0.292;2022-08-21T15:50:47;21.40;99.90
4697;DHT22;2362;50.780;0.292;2022-08-21T15:53:13;21.40;99.90
4697;DHT22;2362;50.780;0.292;2022-08-21T15:55:39;21.40;99.90
4697;DHT22;2362;50.780;0.292;2022-08-21T15:58:05;21.50;99.90
4697;DHT22;2362;50.780;0.292;2022-08-21T16:00:34;21.50;99.90
4697;DHT22;2362;50.780;0.292;2022-08-21T16:03:03;21.50;99.90
4697;DHT22;2362;50.780;0.292;2022-08-21T16:05:30;21.50;99.90
4697;DHT22;2362;50.780;0.292;2022-08-21T16:07:57;21.50;99.90
4697;DHT22;2362;50.780;0.292;2022-08-21T16:10:23;21.50;99.90
4697;DHT22;2362;50.780;0.292;2022-08-21T16:12:56;21.60;99.90
4697;DHT22;2362;50.780;0.292;2022-08-21T16:15:23;21.50;99.90
4697;DHT22;2362;50.780;0.292;2022-08-21T16:17:49;21.60;99.90
4697;DHT22;2362;50.780;0.292;2022-08-21T16:20:23;21.60;99.90
4697;DHT22;2362;50.780;0.292;2022-08-21T16:22:50;21.70;99.90
4697;DHT22;2362;50.780;0.292;2022-08-21T16:25:16;21.70;99.90
4697;DHT22;2362;50.780;0.292;2022-08-21T16:27:46;21.70;99.90
4697;DHT22;2362;50.780;0.292;2022-08-21T16:30:14;21.70;99.90
4697;DHT22;2362;50.780;0.292;2022-08-21T16:32:41;21.70;99.90
4697;DHT22;2362;50.780;0.292;2022-08-21T16:35:10;21.80;99.90
4697;DHT22;2362;50.780;0.292;2022-08-21T16:37:38;21.70;99.90
4697;DHT22;2362;50.780;0.292;2022-08-21T16:40:05;21.80;99.90
4697;DHT22;2362;50.780;0.292;2022-08-21T16:42:31;21.70;99.90
4697;DHT22;2362;50.780;0.292;2022-08-21T16:44:57;21.70;99.90
4697;DHT22;2362;50.780;0.292;2022-08-21T16:47:23;21.50;99.90
4697;DHT22;2362;50.780;0.292;2022-08-21T16:49:49;21.40;99.90
4697;DHT22;2362;50.780;0.292;2022-08-21T16:52:16;21.50;99.90
4697;DHT22;2362;50.780;0.292;2022-08-21T16:54:42;21.40;99.90
4697;DHT22;2362;50.780;0.292;2022-08-21T16:57:08;21.50;99.90
4697;DHT22;2362;50.780;0.292;2022-08-21T16:59:34;21.40;99.90
4697;DHT22;2362;50.780;0.292;2022-08-21T17:02:00;21.40;99.90
4697;DHT22;2362;50.780;0.292;2022-08-21T17:04:26;21.40;99.90
4697;DHT22;2362;50.780;0.292;2022-08-21T17:06:53;21.40;99.90
4697;DHT22;2362;50.780;0.292;2022-08-21T17:09:19;21.40;99.90
4697;DHT22;2362;50.780;0.292;2022-08-21T17:11:46;21.30;99.90
4697;DHT22;2362;50.780;0.292;2022-08-21T17:14:22;21.10;99.90
4697;DHT22;2362;50.780;0.292;2022-08-21T17:16:52;21.10;99.90
4697;DHT22;2362;50.780;0.292;2022-08-21T17:19:20;20.90;99.90
4697;DHT22;2362;50.780;0.292;2022-08-21T17:21:46;20.90;99.90
4697;DHT22;2362;50.780;0.292;2022-08-21T17:24:13;20.90;99.90
4697;DHT22;2362;50.780;0.292;2022-08-21T17:26:41;20.80;99.90
4697;DHT22;2362;50.780;0.292;2022-08-21T17:29:07;20.80;99.90
4697;DHT22;2362;50.780;0.292;2022-08-21T17:31:35;20.60;99.90
4697;DHT22;2362;50.780;0.292;2022-08-21T17:34:02;20.40;99.90
4697;DHT22;2362;50.780;0.292;2022-08-21T17:36:29;20.30;99.90